sensor_id;sensor_type;location;lat;lon;timestamp;pressure;altitude;pressure_sealevel;temperature;humidity
85386;BME280;75792;42.686;23.298;2024-02-23T00:01:02;94434.72;;;6.55;60.88
85386;BME280;75792;42.686;23.298;2024-02-23T00:03:27;94414.03;;;6.58;61.23
85386;BME280;75792;42.686;23.298;2024-02-23T00:05:53;94427.22;;;6.48;61.78
85386;BME280;75792;42.686;23.298;2024-02-23T00:08:18;94426.88;;;6.55;61.69
85386;BME280;75792;42.686;23.298;2024-02-23T00:10:44;94416.63;;;6.58;61.46
85386;BME280;75792;42.686;23.298;2024-02-23T00:13:09;94423.00;;;6.52;61.39
85386;BME280;75792;42.686;23.298;2024-02-23T00:15:35;94410.38;;;6.59;60.97
85386;BME280;75792;42.686;23.298;2024-02-23T00:18:00;94428.16;;;6.57;61.42
85386;BME280;75792;42.686;23.298;2024-02-23T00:20:28;94424.00;;;6.56;60.95
85386;BME280;75792;42.686;23.298;2024-02-23T00:22:54;94416.63;;;6.58;61.60
85386;BME280;75792;42.686;23.298;2024-02-23T00:25:19;94413.53;;;6.56;61.20
85386;BME280;75792;42.686;23.298;2024-02-23T00:27:46;94418.97;;;6.60;61.44
85386;BME280;75792;42.686;23.298;2024-02-23T00:30:13;94418.16;;;6.65;61.35
85386;BME280;75792;42.686;23.298;2024-02-23T00:32:38;94419.25;;;6.58;60.98
85386;BME280;75792;42.686;23.298;2024-02-23T00:35:04;94398.84;;;6.60;61.14
85386;BME280;75792;42.686;23.298;2024-02-23T00:37:29;94405.41;;;6.58;61.22
85386;BME280;75792;42.686;23.298;2024-02-23T00:40:01;94417.84;;;6.66;61.25
85386;BME280;75792;42.686;23.298;2024-02-23T00:42:27;94408.16;;;6.67;60.95
85386;BME280;75792;42.686;23.298;2024-02-23T00:44:52;94426.00;;;6.65;61.18
85386;BME280;75792;42.686;23.298;2024-02-23T00:47:17;94389.53;;;6.54;61.43
85386;BME280;75792;42.686;23.298;2024-02-23T00:49:43;94392.19;;;6.49;61.62
85386;BME280;75792;42.686;23.298;2024-02-23T00:52:08;94390.75;;;6.38;61.92
85386;BME280;75792;42.686;23.298;2024-02-23T00:54:33;94402.13;;;6.47;61.60
85386;BME280;75792;42.686;23.298;2024-02-23T00:56:59;94380.31;;;6.38;61.54
85386;BME280;75792;42.686;23.298;2024-02-23T00:59:24;94375.50;;;6.45;62.04
85386;BME280;75792;42.686;23.298;2024-02-23T01:01:49;94388.56;;;6.45;62.02
85386;BME280;75792;42.686;23.298;2024-02-23T01:04:15;94397.41;;;6.49;61.86
85386;BME280;75792;42.686;23.298;2024-02-23T01:06:40;94383.28;;;6.50;61.66
85386;BME280;75792;42.686;23.298;2024-02-23T01:09:06;94391.63;;;6.52;61.94
85386;BME280;75792;42.686;23.298;2024-02-23T01:11:31;94383.53;;;6.54;61.53
85386;BME280;75792;42.686;23.298;2024-02-23T01:13:56;94391.06;;;6.55;61.60
85386;BME280;75792;42.686;23.298;2024-02-23T01:16:22;94369.19;;;6.51;61.49
85386;BME280;75792;42.686;23.298;2024-02-23T01:18:47;94397.91;;;6.51;61.81
85386;BME280;75792;42.686;23.298;2024-02-23T01:21:13;94372.06;;;6.50;61.55
85386;BME280;75792;42.686;23.298;2024-02-23T01:23:39;94359.69;;;6.55;61.30
85386;BME280;75792;42.686;23.298;2024-02-23T01:26:04;94378.28;;;6.54;61.31
85386;BME280;75792;42.686;23.298;2024-02-23T01:28:29;94368.63;;;6.54;61.48
85386;BME280;75792;42.686;23.298;2024-02-23T01:30:55;94370.72;;;6.52;61.57
85386;BME280;75792;42.686;23.298;2024-02-23T01:33:21;94362.63;;;6.54;61.62
85386;BME280;75792;42.686;23.298;2024-02-23T01:35:46;94359.19;;;6.53;61.37
85386;BME280;75792;42.686;23.298;2024-02-23T01:38:12;94336.81;;;6.47;61.29
85386;BME280;75792;42.686;23.298;2024-02-23T01:40:44;94364.06;;;6.41;61.86
85386;BME280;75792;42.686;23.298;2024-02-23T01:43:09;94389.81;;;6.29;61.72
85386;BME280;75792;42.686;23.298;2024-02-23T01:45:34;94364.66;;;6.14;62.72
85386;BME280;75792;42.686;23.298;2024-02-23T01:48:00;94339.31;;;6.14;62.69
85386;BME280;75792;42.686;23.298;2024-02-23T01:50:26;94352.31;;;6.20;62.44
85386;BME280;75792;42.686;23.298;2024-02-23T01:52:54;94330.97;;;6.12;62.40
85386;BME280;75792;42.686;23.298;2024-02-23T01:55:20;94356.41;;;6.26;62.46
85386;BME280;75792;42.686;23.298;2024-02-23T01:57:46;94365.91;;;6.16;61.47
85386;BME280;75792;42.686;23.298;2024-02-23T02:00:16;94338.75;;;6.18;62.33
85386;BME280;75792;42.686;23.298;2024-02-23T02:02:43;94312.06;;;6.21;62.92
85386;BME280;75792;42.686;23.298;2024-02-23T02:05:08;94342.28;;;6.27;62.41
85386;BME280;75792;42.686;23.298;2024-02-23T02:07:34;94347.56;;;6.22;62.65
85386;BME280;75792;42.686;23.298;2024-02-23T02:09:59;94349.69;;;6.20;62.71
85386;BME280;75792;42.686;23.298;2024-02-23T02:12:28;94343.19;;;6.17;62.93
85386;BME280;75792;42.686;23.298;2024-02-23T02:14:53;94316.84;;;6.13;63.45
85386;BME280;75792;42.686;23.298;2024-02-23T02:17:21;94331.53;;;6.09;63.49
85386;BME280;75792;42.686;23.298;2024-02-23T02:19:48;94337.25;;;6.11;62.85
85386;BME280;75792;42.686;23.298;2024-02-23T02:22:13;94338.81;;;6.12;63.58
85386;BME280;75792;42.686;23.298;2024-02-23T02:24:39;94336.75;;;6.09;63.89
85386;BME280;75792;42.686;23.298;2024-02-23T02:27:06;94343.88;;;6.04;63.56
85386;BME280;75792;42.686;23.298;2024-02-23T02:29:32;94327.41;;;6.03;63.80
85386;BME280;75792;42.686;23.298;2024-02-23T02:31:57;94339.22;;;6.01;64.38
85386;BME280;75792;42.686;23.298;2024-02-23T02:34:22;94347.88;;;5.96;63.71
85386;BME280;75792;42.686;23.298;2024-02-23T02:36:48;94354.63;;;5.97;64.13
85386;BME280;75792;42.686;23.298;2024-02-23T02:39:14;94358.31;;;5.96;64.33
85386;BME280;75792;42.686;23.298;2024-02-23T02:41:39;94343.19;;;5.93;64.35
85386;BME280;75792;42.686;23.298;2024-02-23T02:44:05;94335.31;;;5.98;64.29
85386;BME280;75792;42.686;23.298;2024-02-23T02:46:30;94340.53;;;5.98;64.21
85386;BME280;75792;42.686;23.298;2024-02-23T02:48:56;94351.00;;;5.98;64.92
85386;BME280;75792;42.686;23.298;2024-02-23T02:51:21;94354.44;;;5.93;64.70
85386;BME280;75792;42.686;23.298;2024-02-23T02:53:46;94343.97;;;5.93;64.82
85386;BME280;75792;42.686;23.298;2024-02-23T02:56:12;94349.88;;;6.04;64.55
85386;BME280;75792;42.686;23.298;2024-02-23T02:58:38;94329.97;;;6.08;64.73
85386;BME280;75792;42.686;23.298;2024-02-23T03:01:03;94346.38;;;6.14;64.64
85386;BME280;75792;42.686;23.298;2024-02-23T03:03:28;94339.31;;;6.14;64.59
85386;BME280;75792;42.686;23.298;2024-02-23T03:05:54;94349.19;;;6.18;64.73
85386;BME280;75792;42.686;23.298;2024-02-23T03:08:19;94349.19;;;6.18;64.59
85386;BME280;75792;42.686;23.298;2024-02-23T03:10:45;94331.41;;;6.20;64.82
85386;BME280;75792;42.686;23.298;2024-02-23T03:13:10;94360.63;;;6.22;64.95
85386;BME280;75792;42.686;23.298;2024-02-23T03:15:35;94366.41;;;6.19;64.96
85386;BME280;75792;42.686;23.298;2024-02-23T03:18:01;94347.75;;;6.06;64.73
85386;BME280;75792;42.686;23.298;2024-02-23T03:20:27;94351.88;;;6.12;64.46
85386;BME280;75792;42.686;23.298;2024-02-23T03:22:52;94349.75;;;6.14;64.72
85386;BME280;75792;42.686;23.298;2024-02-23T03:25:18;94344.75;;;6.18;64.88
85386;BME280;75792;42.686;23.298;2024-02-23T03:27:43;94351.19;;;6.26;64.80
85386;BME280;75792;42.686;23.298;2024-02-23T03:30:09;94347.63;;;6.16;64.97
85386;BME280;75792;42.686;23.298;2024-02-23T03:32:35;94334.56;;;6.16;64.84
85386;BME280;75792;42.686;23.298;2024-02-23T03:35:05;94354.41;;;6.18;65.20
85386;BME280;75792;42.686;23.298;2024-02-23T03:37:31;94358.56;;;6.19;65.02
85386;BME280;75792;42.686;23.298;2024-02-23T03:39:56;94338.25;;;6.15;65.51
85386;BME280;75792;42.686;23.298;2024-02-23T03:42:21;94331.47;;;6.14;65.48
85386;BME280;75792;42.686;23.298;2024-02-23T03:44:47;94351.88;;;6.12;65.35
85386;BME280;75792;42.686;23.298;2024-02-23T03:47:12;94329.44;;;6.11;65.74
85386;BME280;75792;42.686;23.298;2024-02-23T03:49:38;94326.56;;;6.08;65.96
85386;BME280;75792;42.686;23.298;2024-02-23T03:52:04;94357.66;;;6.09;65.12
85386;BME280;75792;42.686;23.298;2024-02-23T03:54:30;94355.53;;;6.11;65.74
85386;BME280;75792;42.686;23.298;2024-02-23T03:56:56;94357.59;;;6.14;65.78
85386;BME280;75792;42.686;23.298;2024-02-23T03:59:22;94349.75;;;6.14;65.64
85386;BME280;75792;42.686;23.298;2024-02-23T04:01:47;94346.06;;;6.15;65.82
85386;BME280;75792;42.686;23.298;2024-02-23T04:04:12;94349.53;;;6.11;65.97
85386;BME280;75792;42.686;23.298;2024-02-23T04:06:38;94335.41;;;6.12;66.00
85386;BME280;75792;42.686;23.298;2024-02-23T04:09:04;94342.31;;;6.03;65.71
85386;BME280;75792;42.686;23.298;2024-02-23T04:11:30;94358.75;;;6.03;66.49
85386;BME280;75792;42.686;23.298;2024-02-23T04:13:55;94353.59;;;5.98;66.45
85386;BME280;75792;42.686;23.298;2024-02-23T04:16:24;94361.00;;;5.86;66.34
85386;BME280;75792;42.686;23.298;2024-02-23T04:18:53;94378.25;;;5.82;66.59
85386;BME280;75792;42.686;23.298;2024-02-23T04:21:19;94365.25;;;5.77;66.99
85386;BME280;75792;42.686;23.298;2024-02-23T04:23:44;94346.50;;;5.75;66.96
85386;BME280;75792;42.686;23.298;2024-02-23T04:26:10;94337.16;;;5.68;66.80
85386;BME280;75792;42.686;23.298;2024-02-23T04:28:38;94362.69;;;5.71;66.69
85386;BME280;75792;42.686;23.298;2024-02-23T04:31:04;94361.13;;;5.70;66.00
85386;BME280;75792;42.686;23.298;2024-02-23T04:33:29;94371.31;;;5.72;66.14
85386;BME280;75792;42.686;23.298;2024-02-23T04:35:55;94340.81;;;5.67;66.28
85386;BME280;75792;42.686;23.298;2024-02-23T04:38:20;94343.97;;;5.64;66.09
85386;BME280;75792;42.686;23.298;2024-02-23T04:40:45;94352.06;;;5.63;66.70
85386;BME280;75792;42.686;23.298;2024-02-23T04:43:11;94371.44;;;5.57;66.88
85386;BME280;75792;42.686;23.298;2024-02-23T04:45:36;94348.22;;;5.55;66.64
85386;BME280;75792;42.686;23.298;2024-02-23T04:48:01;94362.34;;;5.54;66.86
85386;BME280;75792;42.686;23.298;2024-02-23T04:50:27;94378.56;;;5.51;67.51
85386;BME280;75792;42.686;23.298;2024-02-23T04:52:53;94365.53;;;5.46;67.44
85386;BME280;75792;42.686;23.298;2024-02-23T04:55:18;94373.69;;;5.39;67.74
85386;BME280;75792;42.686;23.298;2024-02-23T04:57:43;94367.72;;;5.34;67.59
85386;BME280;75792;42.686;23.298;2024-02-23T05:00:09;94364.38;;;5.28;68.34
85386;BME280;75792;42.686;23.298;2024-02-23T05:02:35;94358.47;;;5.17;68.13
85386;BME280;75792;42.686;23.298;2024-02-23T05:05:04;94365.19;;;5.23;68.17
85386;BME280;75792;42.686;23.298;2024-02-23T05:07:32;94368.63;;;5.19;68.43
85386;BME280;75792;42.686;23.298;2024-02-23T05:09:58;94381.13;;;5.22;68.31
85386;BME280;75792;42.686;23.298;2024-02-23T05:12:23;94374.59;;;5.24;68.15
85386;BME280;75792;42.686;23.298;2024-02-23T05:14:49;94376.69;;;5.22;68.12
85386;BME280;75792;42.686;23.298;2024-02-23T05:17:14;94399.41;;;5.17;68.20
85386;BME280;75792;42.686;23.298;2024-02-23T05:19:40;94397.63;;;5.12;68.60
85386;BME280;75792;42.686;23.298;2024-02-23T05:22:05;94379.88;;;5.14;68.59
85386;BME280;75792;42.686;23.298;2024-02-23T05:24:30;94402.78;;;5.17;69.09
85386;BME280;75792;42.686;23.298;2024-02-23T05:26:56;94398.16;;;5.09;68.59
85386;BME280;75792;42.686;23.298;2024-02-23T05:29:23;94400.78;;;5.09;68.55
85386;BME280;75792;42.686;23.298;2024-02-23T05:31:51;94405.44;;;5.12;68.38
85386;BME280;75792;42.686;23.298;2024-02-23T05:34:17;94391.31;;;5.18;68.24
85386;BME280;75792;42.686;23.298;2024-02-23T05:36:43;94398.06;;;5.24;68.31
85386;BME280;75792;42.686;23.298;2024-02-23T05:39:09;94403.31;;;5.19;68.20
85386;BME280;75792;42.686;23.298;2024-02-23T05:41:35;94399.41;;;5.17;68.41
85386;BME280;75792;42.686;23.298;2024-02-23T05:44:03;94397.06;;;5.15;68.34
85386;BME280;75792;42.686;23.298;2024-02-23T05:46:34;94395.47;;;5.24;68.84
85386;BME280;75792;42.686;23.298;2024-02-23T05:49:00;94395.38;;;5.35;68.00
85386;BME280;75792;42.686;23.298;2024-02-23T05:51:30;94422.09;;;5.21;68.33
85386;BME280;75792;42.686;23.298;2024-02-23T05:53:56;94405.88;;;5.24;68.69
85386;BME280;75792;42.686;23.298;2024-02-23T05:56:22;94408.94;;;5.32;68.40
85386;BME280;75792;42.686;23.298;2024-02-23T05:58:49;94414.63;;;5.39;68.14
85386;BME280;75792;42.686;23.298;2024-02-23T06:01:15;94397.88;;;5.45;67.67
85386;BME280;75792;42.686;23.298;2024-02-23T06:03:40;94397.84;;;5.50;67.36
85386;BME280;75792;42.686;23.298;2024-02-23T06:06:08;94418.19;;;5.53;67.48
85386;BME280;75792;42.686;23.298;2024-02-23T06:08:34;94428.22;;;5.36;67.38
85386;BME280;75792;42.686;23.298;2024-02-23T06:11:00;94420.03;;;5.47;67.56
85386;BME280;75792;42.686;23.298;2024-02-23T06:13:25;94428.09;;;5.56;67.66
85386;BME280;75792;42.686;23.298;2024-02-23T06:15:51;94428.00;;;5.66;66.68
85386;BME280;75792;42.686;23.298;2024-02-23T06:18:16;94432.13;;;5.72;66.69
85386;BME280;75792;42.686;23.298;2024-02-23T06:20:42;94422.94;;;5.80;66.37
85386;BME280;75792;42.686;23.298;2024-02-23T06:23:07;94438.03;;;5.83;66.14
85386;BME280;75792;42.686;23.298;2024-02-23T06:25:32;94434.06;;;5.91;65.93
85386;BME280;75792;42.686;23.298;2024-02-23T06:27:58;94434.53;;;5.98;65.81
85386;BME280;75792;42.686;23.298;2024-02-23T06:30:23;94437.06;;;6.03;65.71
85386;BME280;75792;42.686;23.298;2024-02-23T06:32:49;94437.78;;;6.14;65.41
85386;BME280;75792;42.686;23.298;2024-02-23T06:35:14;94434.22;;;6.29;65.41
85386;BME280;75792;42.686;23.298;2024-02-23T06:37:39;94434.44;;;6.32;64.76
85386;BME280;75792;42.686;23.298;2024-02-23T06:40:05;94431.56;;;6.34;65.05
85386;BME280;75792;42.686;23.298;2024-02-23T06:42:32;94437.66;;;6.48;64.31
85386;BME280;75792;42.686;23.298;2024-02-23T06:44:58;94436.50;;;6.59;63.48
85386;BME280;75792;42.686;23.298;2024-02-23T06:47:23;94441.69;;;6.65;63.17
85386;BME280;75792;42.686;23.298;2024-02-23T06:49:49;94447.00;;;6.78;63.60
85386;BME280;75792;42.686;23.298;2024-02-23T06:52:15;94425.19;;;6.88;62.68
85386;BME280;75792;42.686;23.298;2024-02-23T06:54:41;94435.06;;;6.91;62.78
85386;BME280;75792;42.686;23.298;2024-02-23T06:57:07;94441.72;;;7.02;62.62
85386;BME280;75792;42.686;23.298;2024-02-23T06:59:32;94426.03;;;7.02;62.42
85386;BME280;75792;42.686;23.298;2024-02-23T07:01:58;94449.00;;;7.24;61.55
85386;BME280;75792;42.686;23.298;2024-02-23T07:04:23;94440.38;;;7.24;61.10
85386;BME280;75792;42.686;23.298;2024-02-23T07:06:49;94445.97;;;7.36;60.89
85386;BME280;75792;42.686;23.298;2024-02-23T07:09:14;94448.50;;;7.41;60.79
85386;BME280;75792;42.686;23.298;2024-02-23T07:11:40;94447.38;;;7.47;60.72
85386;BME280;75792;42.686;23.298;2024-02-23T07:14:07;94442.94;;;7.62;60.16
85386;BME280;75792;42.686;23.298;2024-02-23T07:16:37;94444.94;;;7.70;59.88
85386;BME280;75792;42.686;23.298;2024-02-23T07:19:04;94435.94;;;7.76;60.41
85386;BME280;75792;42.686;23.298;2024-02-23T07:21:30;94431.19;;;7.78;60.14
85386;BME280;75792;42.686;23.298;2024-02-23T07:23:55;94435.59;;;7.97;59.82
85386;BME280;75792;42.686;23.298;2024-02-23T07:26:21;94429.78;;;8.00;59.73
85386;BME280;75792;42.686;23.298;2024-02-23T07:28:48;94433.59;;;8.21;59.62
85386;BME280;75792;42.686;23.298;2024-02-23T07:31:14;94435.94;;;8.36;58.96
85386;BME280;75792;42.686;23.298;2024-02-23T07:33:41;94444.13;;;8.49;59.13
85386;BME280;75792;42.686;23.298;2024-02-23T07:36:07;94424.91;;;8.40;58.77
85386;BME280;75792;42.686;23.298;2024-02-23T07:38:34;94436.06;;;8.59;58.66
85386;BME280;75792;42.686;23.298;2024-02-23T07:40:59;94429.63;;;8.65;58.55
85386;BME280;75792;42.686;23.298;2024-02-23T07:43:24;94431.31;;;8.61;59.70
85386;BME280;75792;42.686;23.298;2024-02-23T07:45:51;94441.09;;;8.69;59.35
85386;BME280;75792;42.686;23.298;2024-02-23T07:48:17;94436.72;;;8.78;60.04
85386;BME280;75792;42.686;23.298;2024-02-23T07:50:42;94434.56;;;8.80;60.03
85386;BME280;75792;42.686;23.298;2024-02-23T07:53:07;94440.69;;;8.90;59.89
85386;BME280;75792;42.686;23.298;2024-02-23T07:55:33;94437.06;;;9.13;59.19
85386;BME280;75792;42.686;23.298;2024-02-23T07:57:58;94428.31;;;9.04;58.96
85386;BME280;75792;42.686;23.298;2024-02-23T08:00:27;94420.31;;;9.23;59.13
85386;BME280;75792;42.686;23.298;2024-02-23T08:02:52;94426.91;;;9.20;58.64
85386;BME280;75792;42.686;23.298;2024-02-23T08:05:22;94431.13;;;9.44;59.19
85386;BME280;75792;42.686;23.298;2024-02-23T08:07:48;94422.50;;;9.66;57.60
85386;BME280;75792;42.686;23.298;2024-02-23T08:10:13;94418.94;;;9.71;58.15
85386;BME280;75792;42.686;23.298;2024-02-23T08:12:39;94426.72;;;9.76;58.17
85386;BME280;75792;42.686;23.298;2024-02-23T08:15:06;94434.59;;;9.98;57.22
85386;BME280;75792;42.686;23.298;2024-02-23T08:17:31;94414.72;;;10.15;56.94
85386;BME280;75792;42.686;23.298;2024-02-23T08:19:56;94413.88;;;10.05;56.97
85386;BME280;75792;42.686;23.298;2024-02-23T08:22:22;94405.72;;;10.07;56.56
85386;BME280;75792;42.686;23.298;2024-02-23T08:24:48;94412.72;;;10.20;56.53
85386;BME280;75792;42.686;23.298;2024-02-23T08:27:14;94415.91;;;10.31;57.05
85386;BME280;75792;42.686;23.298;2024-02-23T08:29:39;94415.50;;;10.46;56.28
85386;BME280;75792;42.686;23.298;2024-02-23T08:32:05;94428.41;;;10.74;55.48
85386;BME280;75792;42.686;23.298;2024-02-23T08:34:32;94416.22;;;10.87;55.40
85386;BME280;75792;42.686;23.298;2024-02-23T08:37:01;94415.16;;;10.96;55.01
85386;BME280;75792;42.686;23.298;2024-02-23T08:39:27;94417.34;;;11.29;53.93
85386;BME280;75792;42.686;23.298;2024-02-23T08:41:52;94420.13;;;11.59;53.41
85386;BME280;75792;42.686;23.298;2024-02-23T08:44:18;94401.81;;;11.80;53.59
85386;BME280;75792;42.686;23.298;2024-02-23T08:46:44;94402.28;;;11.91;52.13
85386;BME280;75792;42.686;23.298;2024-02-23T08:49:09;94423.31;;;12.17;51.77
85386;BME280;75792;42.686;23.298;2024-02-23T08:51:35;94421.22;;;12.40;50.64
85386;BME280;75792;42.686;23.298;2024-02-23T08:54:01;94423.00;;;12.65;50.48
85386;BME280;75792;42.686;23.298;2024-02-23T08:56:29;94434.50;;;12.90;48.97
85386;BME280;75792;42.686;23.298;2024-02-23T08:58:55;94416.78;;;12.91;48.39
85386;BME280;75792;42.686;23.298;2024-02-23T09:01:20;94418.00;;;13.23;48.08
85386;BME280;75792;42.686;23.298;2024-02-23T09:03:45;94421.75;;;13.43;47.58
85386;BME280;75792;42.686;23.298;2024-02-23T09:06:11;94415.22;;;13.61;46.01
85386;BME280;75792;42.686;23.298;2024-02-23T09:08:36;94416.38;;;13.31;46.23
85386;BME280;75792;42.686;23.298;2024-02-23T09:11:01;94416.72;;;13.50;46.85
85386;BME280;75792;42.686;23.298;2024-02-23T09:13:27;94415.88;;;13.58;44.06
85386;BME280;75792;42.686;23.298;2024-02-23T09:15:55;94408.84;;;13.41;45.22
85386;BME280;75792;42.686;23.298;2024-02-23T09:18:20;94413.25;;;12.87;45.39
85386;BME280;75792;42.686;23.298;2024-02-23T09:20:46;94414.03;;;12.49;46.47
85386;BME280;75792;42.686;23.298;2024-02-23T09:23:11;94407.13;;;12.95;46.11
85386;BME280;75792;42.686;23.298;2024-02-23T09:25:37;94407.75;;;13.22;45.84
85386;BME280;75792;42.686;23.298;2024-02-23T09:28:03;94413.72;;;13.73;45.87
85386;BME280;75792;42.686;23.298;2024-02-23T09:30:28;94412.56;;;13.82;44.22
85386;BME280;75792;42.686;23.298;2024-02-23T09:32:54;94406.75;;;14.01;44.47
85386;BME280;75792;42.686;23.298;2024-02-23T09:35:20;94403.97;;;13.85;43.78
85386;BME280;75792;42.686;23.298;2024-02-23T09:37:45;94402.13;;;13.98;43.82
85386;BME280;75792;42.686;23.298;2024-02-23T09:40:11;94411.88;;;14.31;43.80
85386;BME280;75792;42.686;23.298;2024-02-23T09:42:36;94405.94;;;14.22;43.18
85386;BME280;75792;42.686;23.298;2024-02-23T09:45:05;94409.94;;;14.65;43.38
85386;BME280;75792;42.686;23.298;2024-02-23T09:47:31;94410.47;;;14.95;41.85
85386;BME280;75792;42.686;23.298;2024-02-23T09:49:56;94403.31;;;14.83;41.33
85386;BME280;75792;42.686;23.298;2024-02-23T09:52:22;94404.88;;;14.60;41.85
85386;BME280;75792;42.686;23.298;2024-02-23T09:54:48;94396.72;;;14.77;41.96
85386;BME280;75792;42.686;23.298;2024-02-23T09:57:14;94399.13;;;14.94;41.23
85386;BME280;75792;42.686;23.298;2024-02-23T09:59:41;94394.41;;;14.88;40.90
85386;BME280;75792;42.686;23.298;2024-02-23T10:02:08;94400.63;;;14.34;41.12
85386;BME280;75792;42.686;23.298;2024-02-23T10:04:38;94402.59;;;14.13;42.47
85386;BME280;75792;42.686;23.298;2024-02-23T10:07:05;94416.75;;;13.62;42.99
85386;BME280;75792;42.686;23.298;2024-02-23T10:09:31;94389.44;;;13.58;43.17
85386;BME280;75792;42.686;23.298;2024-02-23T10:11:56;94394.44;;;14.18;41.96
85386;BME280;75792;42.686;23.298;2024-02-23T10:14:23;94383.44;;;14.28;42.40
85386;BME280;75792;42.686;23.298;2024-02-23T10:16:48;94373.94;;;14.15;40.81
85386;BME280;75792;42.686;23.298;2024-02-23T10:19:19;94377.13;;;14.20;40.78
85386;BME280;75792;42.686;23.298;2024-02-23T10:21:45;94388.44;;;13.96;41.83
85386;BME280;75792;42.686;23.298;2024-02-23T10:24:11;94382.75;;;14.06;41.49
85386;BME280;75792;42.686;23.298;2024-02-23T10:26:36;94389.31;;;13.88;40.95
85386;BME280;75792;42.686;23.298;2024-02-23T10:29:02;94376.56;;;13.36;41.69
85386;BME280;75792;42.686;23.298;2024-02-23T10:31:30;94387.38;;;13.64;41.38
85386;BME280;75792;42.686;23.298;2024-02-23T10:33:59;94391.78;;;14.05;40.82
85386;BME280;75792;42.686;23.298;2024-02-23T10:36:24;94372.81;;;13.58;41.64
85386;BME280;75792;42.686;23.298;2024-02-23T10:38:56;94343.06;;;14.06;40.77
85386;BME280;75792;42.686;23.298;2024-02-23T10:41:24;94360.97;;;14.59;40.37
85386;BME280;75792;42.686;23.298;2024-02-23T10:43:51;94360.59;;;14.97;39.41
85386;BME280;75792;42.686;23.298;2024-02-23T10:46:18;94358.28;;;14.95;39.41
85386;BME280;75792;42.686;23.298;2024-02-23T10:48:45;94356.56;;;15.15;39.14
85386;BME280;75792;42.686;23.298;2024-02-23T10:51:10;94354.56;;;15.53;38.56
85386;BME280;75792;42.686;23.298;2024-02-23T10:53:39;94353.22;;;15.59;38.56
85386;BME280;75792;42.686;23.298;2024-02-23T10:56:05;94348.91;;;14.98;38.83
85386;BME280;75792;42.686;23.298;2024-02-23T10:58:31;94339.53;;;14.76;40.15
85386;BME280;75792;42.686;23.298;2024-02-23T11:01:02;94332.50;;;14.68;38.86
85386;BME280;75792;42.686;23.298;2024-02-23T11:03:30;94342.22;;;14.64;39.35
85386;BME280;75792;42.686;23.298;2024-02-23T11:05:56;94329.41;;;14.66;39.00
85386;BME280;75792;42.686;23.298;2024-02-23T11:08:22;94324.31;;;14.73;38.60
85386;BME280;75792;42.686;23.298;2024-02-23T11:10:50;94330.91;;;14.91;39.39
85386;BME280;75792;42.686;23.298;2024-02-23T11:13:18;94321.81;;;15.05;37.79
85386;BME280;75792;42.686;23.298;2024-02-23T11:16:01;94321.22;;;15.52;37.75
85386;BME280;75792;42.686;23.298;2024-02-23T11:18:30;94310.25;;;15.37;37.64
85386;BME280;75792;42.686;23.298;2024-02-23T11:20:59;94311.22;;;14.64;39.29
85386;BME280;75792;42.686;23.298;2024-02-23T11:23:25;94299.59;;;14.81;39.36
85386;BME280;75792;42.686;23.298;2024-02-23T11:28:28;94290.38;;;14.38;41.29
85386;BME280;75792;42.686;23.298;2024-02-23T11:30:54;94307.38;;;14.62;39.45
85386;BME280;75792;42.686;23.298;2024-02-23T11:33:27;94305.84;;;14.61;39.46
85386;BME280;75792;42.686;23.298;2024-02-23T11:35:52;94304.94;;;14.57;39.58
85386;BME280;75792;42.686;23.298;2024-02-23T11:38:18;94294.34;;;14.57;40.05
85386;BME280;75792;42.686;23.298;2024-02-23T11:40:47;94280.13;;;14.61;39.62
85386;BME280;75792;42.686;23.298;2024-02-23T11:43:13;94312.28;;;14.76;39.49
85386;BME280;75792;42.686;23.298;2024-02-23T11:45:39;94297.16;;;14.88;39.15
85386;BME280;75792;42.686;23.298;2024-02-23T11:48:06;94301.81;;;14.79;39.21
85386;BME280;75792;42.686;23.298;2024-02-23T11:50:31;94278.00;;;14.67;39.27
85386;BME280;75792;42.686;23.298;2024-02-23T11:52:57;94312.44;;;14.67;40.26
85386;BME280;75792;42.686;23.298;2024-02-23T11:55:22;94282.22;;;14.56;38.29
85386;BME280;75792;42.686;23.298;2024-02-23T11:57:48;94287.03;;;14.66;38.97
85386;BME280;75792;42.686;23.298;2024-02-23T12:00:14;94273.22;;;15.13;38.18
85386;BME280;75792;42.686;23.298;2024-02-23T12:02:40;94279.53;;;15.36;37.46
85386;BME280;75792;42.686;23.298;2024-02-23T12:05:05;94258.25;;;15.05;38.57
85386;BME280;75792;42.686;23.298;2024-02-23T12:07:32;94259.88;;;14.81;38.42
85386;BME280;75792;42.686;23.298;2024-02-23T12:09:58;94267.63;;;14.49;39.11
85386;BME280;75792;42.686;23.298;2024-02-23T12:12:25;94271.16;;;14.66;39.19
85386;BME280;75792;42.686;23.298;2024-02-23T12:14:50;94261.94;;;15.16;37.00
85386;BME280;75792;42.686;23.298;2024-02-23T12:17:15;94279.81;;;15.63;36.21
85386;BME280;75792;42.686;23.298;2024-02-23T12:19:41;94271.75;;;15.44;36.80
85386;BME280;75792;42.686;23.298;2024-02-23T12:22:07;94278.50;;;15.69;36.12
85386;BME280;75792;42.686;23.298;2024-02-23T12:24:34;94251.78;;;15.62;34.91
85386;BME280;75792;42.686;23.298;2024-02-23T12:27:00;94256.50;;;15.69;35.49
85386;BME280;75792;42.686;23.298;2024-02-23T12:29:25;94256.41;;;15.65;36.08
85386;BME280;75792;42.686;23.298;2024-02-23T12:32:02;94258.91;;;15.90;35.51
85386;BME280;75792;42.686;23.298;2024-02-23T12:34:28;94246.06;;;16.43;35.15
85386;BME280;75792;42.686;23.298;2024-02-23T12:36:55;94237.22;;;16.19;35.10
85386;BME280;75792;42.686;23.298;2024-02-23T12:39:20;94232.31;;;15.70;36.90
85386;BME280;75792;42.686;23.298;2024-02-23T12:41:46;94238.94;;;15.64;37.05
85386;BME280;75792;42.686;23.298;2024-02-23T12:44:11;94237.59;;;16.02;36.29
85386;BME280;75792;42.686;23.298;2024-02-23T12:46:37;94232.50;;;16.29;35.87
85386;BME280;75792;42.686;23.298;2024-02-23T12:49:02;94226.31;;;16.95;35.65
85386;BME280;75792;42.686;23.298;2024-02-23T12:51:28;94217.03;;;16.69;34.40
85386;BME280;75792;42.686;23.298;2024-02-23T12:53:53;94227.66;;;15.67;36.49